Terminal Aerodrome Forecast
Issued by NWS

Home | Current Version | Previous Version | Text Only | Print | Product List | Glossary On
Versions: 1 2 3 4 5 6 7 8 9 10 11 12 13 14 15
000
FTUS46 KSGX 232320
TAFSNA
TAF
KSNA 232320Z 2400/2424 20010KT P6SM FEW012 SCT200
      TEMPO 2400/2403 BKN012
     FM240300 21007KT P6SM SCT015
     FM240700 16008KT P6SM BKN017
     FM241500 15007KT P6SM BKN022
     FM241700 21011G18KT P6SM SCT025=

USA.gov is the U.S. government's official web portal to all federal, state and local government web resources and services.